Time,TemperatureF,DewpointF,PressureIn,WindDirection,WindDirectionDegrees,WindSpeedMPH,WindSpeedGustMPH,Humidity,HourlyPrecipIn,Conditions,Clouds,dailyrainin,SoftwareType,DateUTC
2013-04-26 00:00:00,53.6,34.0,30.24,WNW,283,0.0,0.0,48,0.00,,,-99.99,wx200d/1.3,2013-04-26 07:00:00,
2013-04-26 00:15:00,53.6,34.0,30.24,WNW,296,0.0,2.2,48,0.00,,,-99.99,wx200d/1.3,2013-04-26 07:15:00,
2013-04-26 00:30:00,53.4,34.0,30.24,West,280,0.0,0.0,48,0.00,,,-99.99,wx200d/1.3,2013-04-26 07:30:00,
2013-04-26 00:45:00,53.4,36.0,30.24,West,275,0.0,0.0,49,0.00,,,-99.99,wx200d/1.3,2013-04-26 07:45:00,
2013-04-26 01:00:00,53.1,36.0,30.24,West,276,0.0,0.0,49,0.00,,,-99.99,wx200d/1.3,2013-04-26 08:00:00,
2013-04-26 01:15:00,51.6,36.0,30.24,WNW,289,0.0,0.0,52,0.00,,,-99.99,wx200d/1.3,2013-04-26 08:15:00,
2013-04-26 01:30:00,50.9,36.0,30.24,WNW,292,0.0,0.0,55,0.00,,,-99.99,wx200d/1.3,2013-04-26 08:30:00,
2013-04-26 01:45:00,50.5,36.0,30.24,WSW,248,0.0,0.0,57,0.00,,,-99.99,wx200d/1.3,2013-04-26 08:45:00,
2013-04-26 02:00:00,50.2,36.0,30.24,West,270,0.0,0.0,59,0.00,,,-99.99,wx200d/1.3,2013-04-26 09:00:00,
2013-04-26 02:15:00,51.1,39.0,30.24,West,275,0.0,0.0,62,0.00,,,-99.99,wx200d/1.3,2013-04-26 09:15:00,
2013-04-26 02:30:00,52.0,39.0,30.24,West,270,0.0,0.0,61,0.00,,,-99.99,wx200d/1.3,2013-04-26 09:30:00,
2013-04-26 02:45:00,52.7,39.0,30.24,West,275,0.0,0.0,57,0.00,,,-99.99,wx200d/1.3,2013-04-26 09:45:00,
2013-04-26 03:00:00,52.9,37.0,30.24,West,274,0.0,3.6,55,0.00,,,-99.99,wx200d/1.3,2013-04-26 10:00:00,
2013-04-26 03:15:00,53.1,37.0,30.24,WNW,285,0.0,0.0,55,0.00,,,-99.99,wx200d/1.3,2013-04-26 10:15:00,
2013-04-26 03:30:00,53.1,37.0,30.24,East,89,0.0,0.0,54,0.00,,,-99.99,wx200d/1.3,2013-04-26 10:30:00,
2013-04-26 03:45:00,53.1,37.0,30.24,NW,304,0.0,0.0,55,0.00,,,-99.99,wx200d/1.3,2013-04-26 10:45:00,
2013-04-26 04:00:00,52.9,37.0,30.24,West,267,0.0,0.0,54,0.00,,,-99.99,wx200d/1.3,2013-04-26 11:00:00,
2013-04-26 04:15:00,53.1,37.0,30.24,West,273,0.0,0.0,54,0.00,,,-99.99,wx200d/1.3,2013-04-26 11:15:00,
2013-04-26 04:30:00,52.9,37.0,30.24,West,266,0.0,0.0,52,0.00,,,-99.99,wx200d/1.3,2013-04-26 11:30:00,
2013-04-26 04:45:00,52.9,37.0,30.24,ESE,106,0.0,0.0,53,0.00,,,-99.99,wx200d/1.3,2013-04-26 11:45:00,
2013-04-26 05:00:00,52.7,37.0,30.24,West,271,0.0,0.0,53,0.00,,,-99.99,wx200d/1.3,2013-04-26 12:00:00,
2013-04-26 05:15:00,52.7,37.0,30.27,WNW,301,0.0,0.0,53,0.00,,,-99.99,wx200d/1.3,2013-04-26 12:15:00,
2013-04-26 05:30:00,52.7,37.0,30.24,WNW,303,0.0,0.0,54,0.00,,,-99.99,wx200d/1.3,2013-04-26 12:30:00,
2013-04-26 05:45:00,52.2,36.0,30.24,West,269,0.0,0.0,53,0.00,,,-99.99,wx200d/1.3,2013-04-26 12:45:00,
2013-04-26 06:00:00,52.3,36.0,30.27,SSW,210,0.0,0.0,54,0.00,,,-99.99,wx200d/1.3,2013-04-26 13:00:00,
2013-04-26 06:15:00,52.0,36.0,30.24,West,275,0.0,2.2,55,0.00,,,-99.99,wx200d/1.3,2013-04-26 13:15:00,
2013-04-26 06:30:00,52.0,36.0,30.27,WSW,255,0.0,0.0,55,0.00,,,-99.99,wx200d/1.3,2013-04-26 13:30:00,
2013-04-26 06:45:00,51.8,36.0,30.27,WNW,301,0.0,0.0,55,0.00,,,-99.99,wx200d/1.3,2013-04-26 13:45:00,
2013-04-26 07:00:00,51.8,36.0,30.27,WNW,283,0.0,0.0,54,0.00,,,-99.99,wx200d/1.3,2013-04-26 14:00:00,
2013-04-26 07:15:00,52.2,36.0,30.30,West,267,0.0,0.0,53,0.00,,,-99.99,wx200d/1.3,2013-04-26 14:15:00,
2013-04-26 07:30:00,52.7,37.0,30.30,WNW,287,0.0,0.0,52,0.00,,,-99.99,wx200d/1.3,2013-04-26 14:30:00,
2013-04-26 07:45:00,53.1,36.0,30.30,West,277,0.0,0.0,49,0.00,,,-99.99,wx200d/1.3,2013-04-26 14:45:00,
2013-04-26 08:00:00,53.4,36.0,30.30,West,267,0.0,0.0,50,0.00,,,-99.99,wx200d/1.3,2013-04-26 15:00:00,
2013-04-26 08:15:00,53.8,34.0,30.33,West,265,0.0,0.0,47,0.00,,,-99.99,wx200d/1.3,2013-04-26 15:15:00,
2013-04-26 08:30:00,54.1,34.0,30.33,West,263,0.0,2.7,46,0.00,,,-99.99,wx200d/1.3,2013-04-26 15:30:00,
2013-04-26 08:45:00,54.5,34.0,30.33,WSW,249,0.0,0.0,45,0.00,,,-99.99,wx200d/1.3,2013-04-26 15:45:00,
2013-04-26 09:00:00,55.9,32.0,30.33,East,88,0.0,4.0,40,0.00,,,-99.99,wx200d/1.3,2013-04-26 16:00:00,
2013-04-26 09:15:00,57.0,32.0,30.33,WSW,252,0.0,0.0,39,0.00,,,-99.99,wx200d/1.3,2013-04-26 16:15:00,
2013-04-26 09:30:00,58.5,32.0,30.33,ENE,68,0.0,0.0,37,0.00,,,-99.99,wx200d/1.3,2013-04-26 16:30:00,
2013-04-26 09:45:00,59.0,32.0,30.33,SE,135,0.0,0.0,35,0.00,,,-99.99,wx200d/1.3,2013-04-26 16:45:00,
2013-04-26 10:00:00,61.2,32.0,30.33,North,357,0.0,2.2,31,0.00,,,-99.99,wx200d/1.3,2013-04-26 17:00:00,
2013-04-26 10:15:00,60.8,32.0,30.33,West,268,0.0,0.0,30,0.00,,,-99.99,wx200d/1.3,2013-04-26 17:15:00,
2013-04-26 10:30:00,62.8,32.0,30.36,West,261,0.0,0.0,28,0.00,,,-99.99,wx200d/1.3,2013-04-26 17:30:00,
2013-04-26 10:45:00,62.2,32.0,30.33,West,273,0.0,0.0,27,0.00,,,-99.99,wx200d/1.3,2013-04-26 17:45:00,
2013-04-26 11:00:00,61.0,32.0,30.36,West,270,0.0,0.0,28,0.00,,,-99.99,wx200d/1.3,2013-04-26 18:00:00,
2013-04-26 11:15:00,63.3,32.0,30.36,East,83,0.0,0.0,26,0.00,,,-99.99,wx200d/1.3,2013-04-26 18:15:00,
2013-04-26 11:30:00,62.4,32.0,30.36,West,278,0.0,0.0,27,0.00,,,-99.99,wx200d/1.3,2013-04-26 18:30:00,
2013-04-26 11:45:00,61.3,32.0,30.36,West,275,0.0,0.0,27,0.00,,,-99.99,wx200d/1.3,2013-04-26 18:45:00,
2013-04-26 12:00:00,60.4,32.0,30.36,West,264,0.0,0.0,29,0.00,,,-99.99,wx200d/1.3,2013-04-26 19:00:00,
2013-04-26 12:15:00,60.3,32.0,30.33,NE,53,0.0,2.2,30,0.00,,,-99.99,wx200d/1.3,2013-04-26 19:15:00,
2013-04-26 12:30:00,60.6,32.0,30.33,WNW,288,0.0,0.0,30,0.00,,,-99.99,wx200d/1.3,2013-04-26 19:30:00,
2013-04-26 12:45:00,60.8,32.0,30.33,West,264,0.0,0.0,29,0.00,,,-99.99,wx200d/1.3,2013-04-26 19:45:00,
2013-04-26 13:00:00,61.7,32.0,30.33,NE,42,0.0,2.2,28,0.00,,,-99.99,wx200d/1.3,2013-04-26 20:00:00,
2013-04-26 13:15:00,61.7,32.0,30.33,West,267,2.2,3.1,28,0.00,,,-99.99,wx200d/1.3,2013-04-26 20:15:00,
2013-04-26 13:30:00,61.9,32.0,30.33,WSW,245,0.0,0.0,28,0.00,,,-99.99,wx200d/1.3,2013-04-26 20:30:00,
2013-04-26 13:45:00,61.9,32.0,30.33,West,268,2.2,3.6,28,0.00,,,-99.99,wx200d/1.3,2013-04-26 20:45:00,
2013-04-26 14:00:00,61.9,32.0,30.33,WSW,257,0.0,0.0,28,0.00,,,-99.99,wx200d/1.3,2013-04-26 21:00:00,
2013-04-26 14:15:00,62.2,32.0,30.33,ENE,76,0.0,2.7,27,0.00,,,-99.99,wx200d/1.3,2013-04-26 21:15:00,
2013-04-26 14:30:00,61.9,32.0,30.33,West,274,2.2,0.0,28,0.00,,,-99.99,wx200d/1.3,2013-04-26 21:30:00,
2013-04-26 14:45:00,61.9,32.0,30.30,WSW,243,0.0,0.0,28,0.00,,,-99.99,wx200d/1.3,2013-04-26 21:45:00,
2013-04-26 15:00:00,62.1,32.0,30.30,West,266,2.7,2.7,27,0.00,,,-99.99,wx200d/1.3,2013-04-26 22:00:00,
2013-04-26 15:15:00,62.2,32.0,30.30,ESE,111,2.2,3.6,27,0.00,,,-99.99,wx200d/1.3,2013-04-26 22:15:00,
2013-04-26 15:30:00,62.1,32.0,30.30,West,277,2.2,6.3,27,0.00,,,-99.99,wx200d/1.3,2013-04-26 22:30:00,
2013-04-26 15:45:00,61.2,32.0,30.30,West,270,3.1,3.1,28,0.00,,,-99.99,wx200d/1.3,2013-04-26 22:45:00,
2013-04-26 16:00:00,61.0,32.0,30.30,WNW,286,2.2,3.6,29,0.00,,,-99.99,wx200d/1.3,2013-04-26 23:00:00,
2013-04-26 16:15:00,60.8,32.0,30.30,West,272,0.0,2.2,29,0.00,,,-99.99,wx200d/1.3,2013-04-26 23:15:00,
2013-04-26 16:30:00,60.1,32.0,30.30,West,278,4.0,4.0,30,0.00,,,-99.99,wx200d/1.3,2013-04-26 23:30:00,
2013-04-26 16:45:00,59.5,32.0,30.30,West,270,3.6,3.6,32,0.00,,,-99.99,wx200d/1.3,2013-04-26 23:45:00,
2013-04-26 17:15:00,59.4,32.0,30.30,East,89,0.0,0.0,34,0.00,,,-99.99,wx200d/1.3,2013-04-27 00:15:00,
2013-04-26 17:30:00,59.2,32.0,30.27,East,88,2.2,3.1,33,0.00,,,-99.99,wx200d/1.3,2013-04-27 00:30:00,
2013-04-26 17:45:00,59.0,32.0,30.30,WNW,282,2.2,3.6,33,0.00,,,-99.99,wx200d/1.3,2013-04-27 00:45:00,
2013-04-26 18:00:00,58.6,32.0,30.30,West,275,2.7,2.7,34,0.00,,,-99.99,wx200d/1.3,2013-04-27 01:00:00,
2013-04-26 18:15:00,58.6,32.0,30.30,WNW,293,3.1,3.1,35,0.00,,,-99.99,wx200d/1.3,2013-04-27 01:15:00,
2013-04-26 18:30:00,60.1,32.0,30.30,East,80,3.1,3.1,33,0.00,,,-99.99,wx200d/1.3,2013-04-27 01:30:00,
2013-04-26 18:45:00,57.6,32.0,30.30,West,266,3.1,3.1,35,0.00,,,-99.99,wx200d/1.3,2013-04-27 01:45:00,
2013-04-26 19:00:00,55.2,32.0,30.30,WNW,301,0.0,2.2,38,0.00,,,-99.99,wx200d/1.3,2013-04-27 02:00:00,
2013-04-26 19:15:00,54.0,32.0,30.30,West,276,0.0,0.0,45,0.00,,,-99.99,wx200d/1.3,2013-04-27 02:15:00,
2013-04-26 19:30:00,53.2,36.0,30.30,West,270,2.2,0.0,51,0.00,,,-99.99,wx200d/1.3,2013-04-27 02:30:00,
2013-04-26 19:45:00,52.7,37.0,30.30,West,261,0.0,0.0,53,0.00,,,-99.99,wx200d/1.3,2013-04-27 02:45:00,
2013-04-26 20:00:00,52.0,36.0,30.30,East,82,0.0,0.0,55,0.00,,,-99.99,wx200d/1.3,2013-04-27 03:00:00,
2013-04-26 20:15:00,51.6,37.0,30.30,WNW,288,0.0,0.0,58,0.00,,,-99.99,wx200d/1.3,2013-04-27 03:15:00,
2013-04-26 20:30:00,51.4,37.0,30.30,ENE,70,0.0,0.0,60,0.00,,,-99.99,wx200d/1.3,2013-04-27 03:30:00,
2013-04-26 20:45:00,51.6,39.0,30.30,West,276,0.0,0.0,61,0.00,,,-99.99,wx200d/1.3,2013-04-27 03:45:00,
2013-04-26 21:00:00,51.6,39.0,30.30,East,79,0.0,0.0,62,0.00,,,-99.99,wx200d/1.3,2013-04-27 04:00:00,
2013-04-26 21:15:00,51.8,39.0,30.30,East,90,0.0,3.6,61,0.00,,,-99.99,wx200d/1.3,2013-04-27 04:15:00,
2013-04-26 21:30:00,51.4,39.0,30.33,West,264,0.0,2.7,61,0.00,,,-99.99,wx200d/1.3,2013-04-27 04:30:00,
2013-04-26 21:45:00,51.3,39.0,30.33,West,272,0.0,0.0,62,0.00,,,-99.99,wx200d/1.3,2013-04-27 04:45:00,
2013-04-26 22:00:00,51.6,39.0,30.33,West,271,0.0,0.0,62,0.00,,,-99.99,wx200d/1.3,2013-04-27 05:00:00,
2013-04-26 22:15:00,51.4,39.0,30.33,East,94,0.0,0.0,62,0.00,,,-99.99,wx200d/1.3,2013-04-27 05:15:00,
2013-04-26 22:30:00,51.4,39.0,30.33,East,89,0.0,0.0,61,0.00,,,-99.99,wx200d/1.3,2013-04-27 05:30:00,
2013-04-26 22:45:00,51.3,39.0,30.33,East,90,0.0,0.0,62,0.00,,,-99.99,wx200d/1.3,2013-04-27 05:45:00,
2013-04-26 23:00:00,51.4,39.0,30.33,East,88,0.0,0.0,62,0.00,,,-99.99,wx200d/1.3,2013-04-27 06:00:00,
2013-04-26 23:15:00,51.4,39.0,30.33,NW,322,0.0,0.0,62,0.00,,,-99.99,wx200d/1.3,2013-04-27 06:15:00,
2013-04-26 23:30:00,51.3,39.0,30.33,West,278,0.0,0.0,61,0.00,,,-99.99,wx200d/1.3,2013-04-27 06:30:00,
2013-04-26 23:45:00,51.1,39.0,30.33,West,271,0.0,0.0,61,0.00,,,-99.99,wx200d/1.3,2013-04-27 06:45:00,